Capetan Vassilis — C6S2085 — position and weather

sailwx.info

Track history (hours):
 
Tides and Currents Weather Stations Pressure Air Temp Water Temp Dewpoint Dewpoint Depression Visibility Wind Speed Wind Dir Waves Ship Positions

Capetan Vassilis

Last reported at 2015-Aug-15 16:28 UTC. Time now 2015-Sep-02 04:29 UTC.
Position N 31°22' E 032°19'.
Warning: this ship's position is 17 days out of date.

Length 191 m; draft 12.2 m.

MMSI: 311552000.

Date/timePositionNaut miles runAvg speedWind from/ knotsBaromVisibWave heightAir tempDewpointWater temp
2015-Aug-15 16:28N 31°22' E 032°19'0 0.0
2015-Aug-15 15:31N 31°22' E 032°19'0 0.0
2015-Aug-15 12:22N 31°22' E 032°19'0 0.0
2015-Aug-15 11:16N 31°22' E 032°19'0 0.1
2015-Aug-15 10:31N 31°22' E 032°20'1 1.2
2015-Aug-15 09:28N 31°23' E 032°19'9 9.2
2015-Aug-15 08:29N 31°31' E 032°13'1011.4
2015-Aug-15 07:33N 31°39' E 032°05'2311.7
2015-Aug-15 05:34N 31°56' E 031°46'1311.7
2015-Aug-15 04:28N 32°05' E 031°36'2511.7
2015-Aug-15 02:22N 32°23' E 031°16'4511.7
2015-Aug-14 22:28N 32°57' E 030°40'1011.4
2015-Aug-14 21:32N 33°05' E 030°32'2411.6
2015-Aug-14 19:26N 33°23' E 030°12'4112.2
2015-Aug-14 16:03N 33°53' E 029°38'1112.3
2015-Aug-14 15:11N 34°01' E 029°30'15111.9
2015-Aug-14 02:33N 35°53' E 027°26'1312.7
2015-Aug-14 01:33N 36°03' E 027°16'1711.8
2015-Aug-14 00:05N 36°15' E 027°02'711.9
2015-Aug-13 23:31N 36°20' E 026°56'1111.7
2015-Aug-13 22:33N 36°29' E 026°46'1411.7
2015-Aug-13 21:21N 36°39' E 026°35'911.6
2015-Aug-13 20:33N 36°46' E 026°27'1212.2
2015-Aug-13 19:33N 36°55' E 026°16'1212.2
2015-Aug-13 18:33N 37°05' E 026°08'1211.8
2015-Aug-13 17:33N 37°16' E 026°01'1211.8
2015-Aug-13 16:33N 37°26' E 025°54'1111.2
2015-Aug-13 15:34N 37°37' E 025°51'1211.2
2015-Aug-13 14:29N 37°49' E 025°50'  
2015-Aug-11 05:33N 43°40' E 033°59'1211.9
2015-Aug-11 04:33N 43°47' E 034°13'1212.1
2015-Aug-11 03:33N 43°54' E 034°27'1211.8
2015-Aug-11 02:33N 43°60' E 034°41'1312.0
2015-Aug-11 01:31N 44°06' E 034°56'1211.8
2015-Aug-11 00:32N 44°12' E 035°09'1211.6
2015-Aug-10 23:30N 44°19' E 035°23'1211.7
2015-Aug-10 22:29N 44°26' E 035°37'4711.2
2015-Aug-10 18:15N 44°56' E 036°28'13 4.5
2015-Aug-10 15:29N 45°08' E 036°33'  
2015-Aug-06 07:08N 45°08' E 036°33'  
Track history (hours):
 
Tides and Currents Weather Stations Pressure Air Temp Water Temp Dewpoint Dewpoint Depression Visibility Wind Speed Wind Dir Waves Ship Positions

Capetan Vassilis

Last reported at 2015-Aug-15 16:28 UTC. Time now 2015-Sep-02 04:29 UTC.
Position N 31°22' E 032°19'.
Warning: this ship's position is 17 days out of date.

Length 191 m; draft 12.2 m.

MMSI: 311552000.

Date/timePositionNaut miles runAvg speedWind from/ knotsBaromVisibWave heightAir tempDewpointWater temp
2015-Aug-15 16:28N 31°22' E 032°19'0 0.0
2015-Aug-15 15:31N 31°22' E 032°19'0 0.0
2015-Aug-15 12:22N 31°22' E 032°19'0 0.0
2015-Aug-15 11:16N 31°22' E 032°19'0 0.1
2015-Aug-15 10:31N 31°22' E 032°20'1 1.2
2015-Aug-15 09:28N 31°23' E 032°19'9 9.2
2015-Aug-15 08:29N 31°31' E 032°13'1011.4
2015-Aug-15 07:33N 31°39' E 032°05'2311.7
2015-Aug-15 05:34N 31°56' E 031°46'1311.7
2015-Aug-15 04:28N 32°05' E 031°36'2511.7
2015-Aug-15 02:22N 32°23' E 031°16'4511.7
2015-Aug-14 22:28N 32°57' E 030°40'1011.4
2015-Aug-14 21:32N 33°05' E 030°32'2411.6
2015-Aug-14 19:26N 33°23' E 030°12'4112.2
2015-Aug-14 16:03N 33°53' E 029°38'1112.3
2015-Aug-14 15:11N 34°01' E 029°30'15111.9
2015-Aug-14 02:33N 35°53' E 027°26'1312.7
2015-Aug-14 01:33N 36°03' E 027°16'1711.8
2015-Aug-14 00:05N 36°15' E 027°02'711.9
2015-Aug-13 23:31N 36°20' E 026°56'1111.7
2015-Aug-13 22:33N 36°29' E 026°46'1411.7
2015-Aug-13 21:21N 36°39' E 026°35'911.6
2015-Aug-13 20:33N 36°46' E 026°27'1212.2
2015-Aug-13 19:33N 36°55' E 026°16'1212.2
2015-Aug-13 18:33N 37°05' E 026°08'1211.8
2015-Aug-13 17:33N 37°16' E 026°01'1211.8
2015-Aug-13 16:33N 37°26' E 025°54'1111.2
2015-Aug-13 15:34N 37°37' E 025°51'1211.2
2015-Aug-13 14:29N 37°49' E 025°50'  
2015-Aug-11 05:33N 43°40' E 033°59'1211.9
2015-Aug-11 04:33N 43°47' E 034°13'1212.1
2015-Aug-11 03:33N 43°54' E 034°27'1211.8
2015-Aug-11 02:33N 43°60' E 034°41'1312.0
2015-Aug-11 01:31N 44°06' E 034°56'1211.8
2015-Aug-11 00:32N 44°12' E 035°09'1211.6
2015-Aug-10 23:30N 44°19' E 035°23'1211.7
2015-Aug-10 22:29N 44°26' E 035°37'4711.2
2015-Aug-10 18:15N 44°56' E 036°28'13 4.5
2015-Aug-10 15:29N 45°08' E 036°33'  
2015-Aug-06 07:08N 45°08' E 036°33'  

Dump ship's entire track history